sensor_id;sensor_type;location;lat;lon;timestamp;temperature;humidity
42245;DHT22;27912;51.828;5.688;2023-04-22T00:02:03;7.20;99.90
42245;DHT22;27912;51.828;5.688;2023-04-22T00:04:28;7.10;99.90
42245;DHT22;27912;51.828;5.688;2023-04-22T00:06:54;7.10;99.90
42245;DHT22;27912;51.828;5.688;2023-04-22T00:09:20;7.10;99.90
42245;DHT22;27912;51.828;5.688;2023-04-22T00:11:46;7.10;99.90
42245;DHT22;27912;51.828;5.688;2023-04-22T00:14:11;7.10;99.90
42245;DHT22;27912;51.828;5.688;2023-04-22T00:16:38;7.00;99.90
42245;DHT22;27912;51.828;5.688;2023-04-22T00:19:03;7.00;99.90
42245;DHT22;27912;51.828;5.688;2023-04-22T00:21:30;7.00;99.90
42245;DHT22;27912;51.828;5.688;2023-04-22T00:23:57;6.90;99.90
42245;DHT22;27912;51.828;5.688;2023-04-22T00:26:22;6.90;99.90
42245;DHT22;27912;51.828;5.688;2023-04-22T00:28:48;6.90;99.90
42245;DHT22;27912;51.828;5.688;2023-04-22T00:31:13;6.80;99.90
42245;DHT22;27912;51.828;5.688;2023-04-22T00:33:39;6.90;99.90
42245;DHT22;27912;51.828;5.688;2023-04-22T00:36:05;6.80;99.90
42245;DHT22;27912;51.828;5.688;2023-04-22T00:38:31;6.80;99.90
42245;DHT22;27912;51.828;5.688;2023-04-22T00:40:56;6.70;99.90
42245;DHT22;27912;51.828;5.688;2023-04-22T00:43:22;6.80;99.90
42245;DHT22;27912;51.828;5.688;2023-04-22T00:45:48;6.70;99.90
42245;DHT22;27912;51.828;5.688;2023-04-22T00:48:14;6.70;99.90
42245;DHT22;27912;51.828;5.688;2023-04-22T00:50:39;6.70;99.90
42245;DHT22;27912;51.828;5.688;2023-04-22T00:53:05;6.70;99.90
42245;DHT22;27912;51.828;5.688;2023-04-22T00:55:31;6.80;99.90
42245;DHT22;27912;51.828;5.688;2023-04-22T00:57:57;6.70;99.90
42245;DHT22;27912;51.828;5.688;2023-04-22T01:00:24;6.70;99.90
42245;DHT22;27912;51.828;5.688;2023-04-22T01:02:52;6.70;99.90
42245;DHT22;27912;51.828;5.688;2023-04-22T01:05:18;6.70;99.90
42245;DHT22;27912;51.828;5.688;2023-04-22T01:07:44;6.70;99.90
42245;DHT22;27912;51.828;5.688;2023-04-22T01:10:10;6.60;99.90
42245;DHT22;27912;51.828;5.688;2023-04-22T01:12:35;6.60;99.90
42245;DHT22;27912;51.828;5.688;2023-04-22T01:15:01;6.60;99.90
42245;DHT22;27912;51.828;5.688;2023-04-22T01:17:27;6.70;99.90
42245;DHT22;27912;51.828;5.688;2023-04-22T01:19:53;6.60;99.90
42245;DHT22;27912;51.828;5.688;2023-04-22T01:22:20;6.60;99.90
42245;DHT22;27912;51.828;5.688;2023-04-22T01:24:47;6.60;99.90
42245;DHT22;27912;51.828;5.688;2023-04-22T01:27:13;6.60;99.90
42245;DHT22;27912;51.828;5.688;2023-04-22T01:29:39;6.50;99.90
42245;DHT22;27912;51.828;5.688;2023-04-22T01:32:04;6.60;99.90
42245;DHT22;27912;51.828;5.688;2023-04-22T01:34:31;6.50;99.90
42245;DHT22;27912;51.828;5.688;2023-04-22T01:36:57;6.50;99.90
42245;DHT22;27912;51.828;5.688;2023-04-22T01:39:22;6.50;99.90
42245;DHT22;27912;51.828;5.688;2023-04-22T01:41:48;6.50;99.90
42245;DHT22;27912;51.828;5.688;2023-04-22T01:44:14;6.50;99.90
42245;DHT22;27912;51.828;5.688;2023-04-22T01:46:40;6.50;99.90
42245;DHT22;27912;51.828;5.688;2023-04-22T01:49:06;6.50;99.90
42245;DHT22;27912;51.828;5.688;2023-04-22T01:51:31;6.50;99.90
42245;DHT22;27912;51.828;5.688;2023-04-22T01:53:57;6.60;99.90
42245;DHT22;27912;51.828;5.688;2023-04-22T01:56:22;6.50;99.90
42245;DHT22;27912;51.828;5.688;2023-04-22T01:58:48;6.50;99.90
42245;DHT22;27912;51.828;5.688;2023-04-22T02:01:14;6.60;99.90
42245;DHT22;27912;51.828;5.688;2023-04-22T02:03:39;6.60;99.90
42245;DHT22;27912;51.828;5.688;2023-04-22T02:06:05;6.60;99.90
42245;DHT22;27912;51.828;5.688;2023-04-22T02:08:32;6.60;99.90
42245;DHT22;27912;51.828;5.688;2023-04-22T02:10:57;6.60;99.90
42245;DHT22;27912;51.828;5.688;2023-04-22T02:13:25;6.60;99.90
42245;DHT22;27912;51.828;5.688;2023-04-22T02:15:51;6.60;99.90
42245;DHT22;27912;51.828;5.688;2023-04-22T02:18:17;6.70;99.90
42245;DHT22;27912;51.828;5.688;2023-04-22T02:20:43;6.70;99.90
42245;DHT22;27912;51.828;5.688;2023-04-22T02:23:09;6.70;99.90
42245;DHT22;27912;51.828;5.688;2023-04-22T02:25:36;6.70;99.90
42245;DHT22;27912;51.828;5.688;2023-04-22T02:28:02;6.70;99.90
42245;DHT22;27912;51.828;5.688;2023-04-22T02:30:27;6.70;99.90
42245;DHT22;27912;51.828;5.688;2023-04-22T02:32:53;6.70;99.90
42245;DHT22;27912;51.828;5.688;2023-04-22T02:35:19;6.70;99.90
42245;DHT22;27912;51.828;5.688;2023-04-22T02:37:44;6.70;99.90
42245;DHT22;27912;51.828;5.688;2023-04-22T02:40:10;6.70;99.90
42245;DHT22;27912;51.828;5.688;2023-04-22T02:42:36;6.70;99.90
42245;DHT22;27912;51.828;5.688;2023-04-22T02:45:01;6.80;99.90
42245;DHT22;27912;51.828;5.688;2023-04-22T02:47:27;6.80;99.90
42245;DHT22;27912;51.828;5.688;2023-04-22T02:49:53;6.80;99.90
42245;DHT22;27912;51.828;5.688;2023-04-22T02:52:18;6.90;99.90
42245;DHT22;27912;51.828;5.688;2023-04-22T02:54:44;6.90;99.90
42245;DHT22;27912;51.828;5.688;2023-04-22T02:57:09;7.00;99.90
42245;DHT22;27912;51.828;5.688;2023-04-22T02:59:35;7.00;99.90
42245;DHT22;27912;51.828;5.688;2023-04-22T03:02:01;7.10;99.90
42245;DHT22;27912;51.828;5.688;2023-04-22T03:04:27;7.10;99.90
42245;DHT22;27912;51.828;5.688;2023-04-22T03:06:53;7.20;99.90
42245;DHT22;27912;51.828;5.688;2023-04-22T03:09:18;7.20;99.90
42245;DHT22;27912;51.828;5.688;2023-04-22T03:11:44;7.20;99.90
42245;DHT22;27912;51.828;5.688;2023-04-22T03:14:09;7.20;99.90
42245;DHT22;27912;51.828;5.688;2023-04-22T03:16:35;7.20;99.90
42245;DHT22;27912;51.828;5.688;2023-04-22T03:19:01;7.30;99.90
42245;DHT22;27912;51.828;5.688;2023-04-22T03:21:27;7.30;99.90
42245;DHT22;27912;51.828;5.688;2023-04-22T03:23:53;7.30;99.90
42245;DHT22;27912;51.828;5.688;2023-04-22T03:26:18;7.20;99.90
42245;DHT22;27912;51.828;5.688;2023-04-22T03:28:44;7.20;99.90
42245;DHT22;27912;51.828;5.688;2023-04-22T03:31:10;7.20;99.90
42245;DHT22;27912;51.828;5.688;2023-04-22T03:33:35;7.20;99.90
42245;DHT22;27912;51.828;5.688;2023-04-22T03:36:01;7.30;99.90
42245;DHT22;27912;51.828;5.688;2023-04-22T03:38:26;7.30;99.90
42245;DHT22;27912;51.828;5.688;2023-04-22T03:40:52;7.30;99.90
42245;DHT22;27912;51.828;5.688;2023-04-22T03:43:17;7.20;99.90
42245;DHT22;27912;51.828;5.688;2023-04-22T03:45:43;7.20;99.90
42245;DHT22;27912;51.828;5.688;2023-04-22T03:48:09;7.20;99.90
42245;DHT22;27912;51.828;5.688;2023-04-22T03:50:35;7.20;99.90
42245;DHT22;27912;51.828;5.688;2023-04-22T03:53:00;7.10;99.90
42245;DHT22;27912;51.828;5.688;2023-04-22T03:55:26;7.20;99.90
42245;DHT22;27912;51.828;5.688;2023-04-22T03:57:51;7.10;99.90
42245;DHT22;27912;51.828;5.688;2023-04-22T04:00:17;7.10;99.90
42245;DHT22;27912;51.828;5.688;2023-04-22T04:02:42;7.10;99.90
42245;DHT22;27912;51.828;5.688;2023-04-22T04:05:08;7.10;99.90
42245;DHT22;27912;51.828;5.688;2023-04-22T04:07:35;7.10;99.90
42245;DHT22;27912;51.828;5.688;2023-04-22T04:10:01;7.10;99.90
42245;DHT22;27912;51.828;5.688;2023-04-22T04:12:27;7.20;99.90
42245;DHT22;27912;51.828;5.688;2023-04-22T04:14:52;7.20;99.90
42245;DHT22;27912;51.828;5.688;2023-04-22T04:17:18;7.20;99.90
42245;DHT22;27912;51.828;5.688;2023-04-22T04:19:43;7.20;99.90
42245;DHT22;27912;51.828;5.688;2023-04-22T04:22:09;7.20;99.90
42245;DHT22;27912;51.828;5.688;2023-04-22T04:24:35;7.30;99.90
42245;DHT22;27912;51.828;5.688;2023-04-22T04:27:01;7.30;99.90
42245;DHT22;27912;51.828;5.688;2023-04-22T04:29:27;7.30;99.90
42245;DHT22;27912;51.828;5.688;2023-04-22T04:31:53;7.30;99.90
42245;DHT22;27912;51.828;5.688;2023-04-22T04:34:19;7.30;99.90
42245;DHT22;27912;51.828;5.688;2023-04-22T04:36:44;7.30;99.90
42245;DHT22;27912;51.828;5.688;2023-04-22T04:39:11;7.30;99.90
42245;DHT22;27912;51.828;5.688;2023-04-22T04:41:36;7.20;99.90
42245;DHT22;27912;51.828;5.688;2023-04-22T04:44:03;7.30;99.90
42245;DHT22;27912;51.828;5.688;2023-04-22T04:46:28;7.30;99.90
42245;DHT22;27912;51.828;5.688;2023-04-22T04:48:55;7.30;99.90
42245;DHT22;27912;51.828;5.688;2023-04-22T04:51:20;7.30;99.90
42245;DHT22;27912;51.828;5.688;2023-04-22T04:53:46;7.30;99.90
42245;DHT22;27912;51.828;5.688;2023-04-22T04:56:11;7.30;99.90
42245;DHT22;27912;51.828;5.688;2023-04-22T04:58:37;7.40;99.90
42245;DHT22;27912;51.828;5.688;2023-04-22T05:01:02;7.50;99.90
42245;DHT22;27912;51.828;5.688;2023-04-22T05:03:28;7.50;99.90
42245;DHT22;27912;51.828;5.688;2023-04-22T05:05:53;7.50;99.90
42245;DHT22;27912;51.828;5.688;2023-04-22T05:08:19;7.50;99.90
42245;DHT22;27912;51.828;5.688;2023-04-22T05:10:44;7.60;99.90
42245;DHT22;27912;51.828;5.688;2023-04-22T05:13:10;7.60;99.90
42245;DHT22;27912;51.828;5.688;2023-04-22T05:15:36;7.60;99.90
42245;DHT22;27912;51.828;5.688;2023-04-22T05:18:01;7.60;99.90
42245;DHT22;27912;51.828;5.688;2023-04-22T05:20:27;7.70;99.90
42245;DHT22;27912;51.828;5.688;2023-04-22T05:22:53;7.70;99.90
42245;DHT22;27912;51.828;5.688;2023-04-22T05:25:18;7.70;99.90
42245;DHT22;27912;51.828;5.688;2023-04-22T05:27:44;7.80;99.90
42245;DHT22;27912;51.828;5.688;2023-04-22T05:30:10;7.80;99.90
42245;DHT22;27912;51.828;5.688;2023-04-22T05:32:35;7.80;99.90
42245;DHT22;27912;51.828;5.688;2023-04-22T05:35:01;7.80;99.90
42245;DHT22;27912;51.828;5.688;2023-04-22T05:37:27;7.90;99.90
42245;DHT22;27912;51.828;5.688;2023-04-22T05:39:52;7.90;99.90
42245;DHT22;27912;51.828;5.688;2023-04-22T05:42:18;7.90;99.90
42245;DHT22;27912;51.828;5.688;2023-04-22T05:44:43;8.00;99.90
42245;DHT22;27912;51.828;5.688;2023-04-22T05:47:09;8.00;99.90
42245;DHT22;27912;51.828;5.688;2023-04-22T05:49:35;8.10;99.90
42245;DHT22;27912;51.828;5.688;2023-04-22T05:52:00;8.20;99.90
42245;DHT22;27912;51.828;5.688;2023-04-22T05:54:27;8.20;99.90
42245;DHT22;27912;51.828;5.688;2023-04-22T05:56:54;8.30;99.90
42245;DHT22;27912;51.828;5.688;2023-04-22T05:59:20;8.40;99.90
42245;DHT22;27912;51.828;5.688;2023-04-22T06:01:45;8.40;99.90
42245;DHT22;27912;51.828;5.688;2023-04-22T06:04:11;8.50;99.90
42245;DHT22;27912;51.828;5.688;2023-04-22T06:06:37;8.70;99.90
42245;DHT22;27912;51.828;5.688;2023-04-22T06:09:02;8.70;99.90
42245;DHT22;27912;51.828;5.688;2023-04-22T06:11:28;8.90;99.90
42245;DHT22;27912;51.828;5.688;2023-04-22T06:13:53;9.00;99.90
42245;DHT22;27912;51.828;5.688;2023-04-22T06:16:19;9.00;99.90
42245;DHT22;27912;51.828;5.688;2023-04-22T06:18:46;9.00;99.90
42245;DHT22;27912;51.828;5.688;2023-04-22T06:21:11;9.00;99.90
42245;DHT22;27912;51.828;5.688;2023-04-22T06:23:37;9.00;99.90
42245;DHT22;27912;51.828;5.688;2023-04-22T06:26:03;9.00;99.90
42245;DHT22;27912;51.828;5.688;2023-04-22T06:28:28;9.00;99.90
42245;DHT22;27912;51.828;5.688;2023-04-22T06:30:54;9.00;99.90
42245;DHT22;27912;51.828;5.688;2023-04-22T06:33:20;9.10;99.90
42245;DHT22;27912;51.828;5.688;2023-04-22T06:35:45;9.20;99.90
42245;DHT22;27912;51.828;5.688;2023-04-22T06:38:11;9.30;99.90
42245;DHT22;27912;51.828;5.688;2023-04-22T06:40:36;9.50;99.90
42245;DHT22;27912;51.828;5.688;2023-04-22T06:43:02;9.70;99.90
42245;DHT22;27912;51.828;5.688;2023-04-22T06:45:28;9.80;99.90
42245;DHT22;27912;51.828;5.688;2023-04-22T06:47:53;10.10;99.90
42245;DHT22;27912;51.828;5.688;2023-04-22T06:50:19;10.30;99.90
42245;DHT22;27912;51.828;5.688;2023-04-22T06:52:45;10.50;99.90
42245;DHT22;27912;51.828;5.688;2023-04-22T06:55:10;10.70;99.90
42245;DHT22;27912;51.828;5.688;2023-04-22T06:57:36;10.90;99.90
42245;DHT22;27912;51.828;5.688;2023-04-22T07:00:03;11.00;99.90
42245;DHT22;27912;51.828;5.688;2023-04-22T07:02:29;11.10;99.90
42245;DHT22;27912;51.828;5.688;2023-04-22T07:04:55;11.30;99.90
42245;DHT22;27912;51.828;5.688;2023-04-22T07:07:20;11.40;99.90
42245;DHT22;27912;51.828;5.688;2023-04-22T07:09:46;11.50;99.90
42245;DHT22;27912;51.828;5.688;2023-04-22T07:12:11;11.70;99.90
42245;DHT22;27912;51.828;5.688;2023-04-22T07:14:37;11.90;99.90
42245;DHT22;27912;51.828;5.688;2023-04-22T07:17:06;12.20;99.90
42245;DHT22;27912;51.828;5.688;2023-04-22T07:19:32;12.50;99.90
42245;DHT22;27912;51.828;5.688;2023-04-22T07:21:57;12.70;99.90
42245;DHT22;27912;51.828;5.688;2023-04-22T07:24:23;12.90;99.90
42245;DHT22;27912;51.828;5.688;2023-04-22T07:26:48;13.10;99.90
42245;DHT22;27912;51.828;5.688;2023-04-22T07:29:14;13.30;99.90
42245;DHT22;27912;51.828;5.688;2023-04-22T07:31:39;13.40;99.90
42245;DHT22;27912;51.828;5.688;2023-04-22T07:34:05;13.50;99.90
42245;DHT22;27912;51.828;5.688;2023-04-22T07:36:30;13.60;99.90
42245;DHT22;27912;51.828;5.688;2023-04-22T07:38:59;13.70;99.90
42245;DHT22;27912;51.828;5.688;2023-04-22T07:41:24;13.80;99.90
42245;DHT22;27912;51.828;5.688;2023-04-22T07:43:50;13.80;99.90
42245;DHT22;27912;51.828;5.688;2023-04-22T07:46:15;13.80;99.90
42245;DHT22;27912;51.828;5.688;2023-04-22T07:48:41;13.80;99.90
42245;DHT22;27912;51.828;5.688;2023-04-22T07:51:07;13.70;99.90
42245;DHT22;27912;51.828;5.688;2023-04-22T07:53:33;13.70;99.90
42245;DHT22;27912;51.828;5.688;2023-04-22T07:56:00;13.70;99.90
42245;DHT22;27912;51.828;5.688;2023-04-22T07:58:26;13.80;99.90
42245;DHT22;27912;51.828;5.688;2023-04-22T08:00:52;13.80;99.90
42245;DHT22;27912;51.828;5.688;2023-04-22T08:03:17;13.90;99.90
42245;DHT22;27912;51.828;5.688;2023-04-22T08:05:43;13.90;99.90
42245;DHT22;27912;51.828;5.688;2023-04-22T08:08:08;14.00;99.90
42245;DHT22;27912;51.828;5.688;2023-04-22T08:10:34;14.10;99.90
42245;DHT22;27912;51.828;5.688;2023-04-22T08:12:59;14.20;99.90
42245;DHT22;27912;51.828;5.688;2023-04-22T08:15:25;14.30;99.90
42245;DHT22;27912;51.828;5.688;2023-04-22T08:17:51;14.40;99.90
42245;DHT22;27912;51.828;5.688;2023-04-22T08:20:16;14.50;99.90
42245;DHT22;27912;51.828;5.688;2023-04-22T08:22:42;14.60;99.90
42245;DHT22;27912;51.828;5.688;2023-04-22T08:25:09;14.70;99.90
42245;DHT22;27912;51.828;5.688;2023-04-22T08:27:35;14.80;99.90
42245;DHT22;27912;51.828;5.688;2023-04-22T08:30:01;14.80;99.90
42245;DHT22;27912;51.828;5.688;2023-04-22T08:32:27;14.90;99.90
42245;DHT22;27912;51.828;5.688;2023-04-22T08:34:52;15.00;99.90
42245;DHT22;27912;51.828;5.688;2023-04-22T08:37:18;15.10;99.90
42245;DHT22;27912;51.828;5.688;2023-04-22T08:39:44;15.20;99.90
42245;DHT22;27912;51.828;5.688;2023-04-22T08:42:09;15.20;99.90
42245;DHT22;27912;51.828;5.688;2023-04-22T08:44:38;15.40;99.90
42245;DHT22;27912;51.828;5.688;2023-04-22T08:47:04;15.40;99.90
42245;DHT22;27912;51.828;5.688;2023-04-22T08:49:30;15.50;99.90
42245;DHT22;27912;51.828;5.688;2023-04-22T08:51:55;15.70;99.90
42245;DHT22;27912;51.828;5.688;2023-04-22T08:54:22;15.80;99.90
42245;DHT22;27912;51.828;5.688;2023-04-22T08:56:49;15.90;99.90
42245;DHT22;27912;51.828;5.688;2023-04-22T08:59:15;16.00;99.90
42245;DHT22;27912;51.828;5.688;2023-04-22T09:01:41;16.00;99.90
42245;DHT22;27912;51.828;5.688;2023-04-22T09:04:09;15.90;99.90
42245;DHT22;27912;51.828;5.688;2023-04-22T09:06:37;15.90;99.90
42245;DHT22;27912;51.828;5.688;2023-04-22T09:09:03;16.00;99.90
42245;DHT22;27912;51.828;5.688;2023-04-22T09:11:31;16.10;99.90
42245;DHT22;27912;51.828;5.688;2023-04-22T09:13:56;16.20;99.90
42245;DHT22;27912;51.828;5.688;2023-04-22T09:16:22;16.30;99.90
42245;DHT22;27912;51.828;5.688;2023-04-22T09:18:49;16.40;99.90
42245;DHT22;27912;51.828;5.688;2023-04-22T09:21:15;16.40;99.90
42245;DHT22;27912;51.828;5.688;2023-04-22T09:23:51;16.50;99.90
42245;DHT22;27912;51.828;5.688;2023-04-22T09:26:20;16.60;99.90
42245;DHT22;27912;51.828;5.688;2023-04-22T09:28:49;16.70;99.90
42245;DHT22;27912;51.828;5.688;2023-04-22T09:31:15;16.70;99.90
42245;DHT22;27912;51.828;5.688;2023-04-22T09:33:40;16.80;99.90
42245;DHT22;27912;51.828;5.688;2023-04-22T09:36:09;16.80;99.90
42245;DHT22;27912;51.828;5.688;2023-04-22T09:38:35;16.90;99.90
42245;DHT22;27912;51.828;5.688;2023-04-22T09:41:00;17.10;99.90
42245;DHT22;27912;51.828;5.688;2023-04-22T09:43:32;17.10;99.90
42245;DHT22;27912;51.828;5.688;2023-04-22T09:45:58;17.10;99.90
42245;DHT22;27912;51.828;5.688;2023-04-22T09:48:24;17.10;99.90
42245;DHT22;27912;51.828;5.688;2023-04-22T09:50:51;17.30;99.90
42245;DHT22;27912;51.828;5.688;2023-04-22T09:53:18;17.50;99.90
42245;DHT22;27912;51.828;5.688;2023-04-22T09:55:50;17.60;99.90
42245;DHT22;27912;51.828;5.688;2023-04-22T09:58:18;17.60;99.90
42245;DHT22;27912;51.828;5.688;2023-04-22T10:00:53;17.80;99.90
42245;DHT22;27912;51.828;5.688;2023-04-22T10:03:19;17.90;99.90
42245;DHT22;27912;51.828;5.688;2023-04-22T10:05:45;18.10;99.90
42245;DHT22;27912;51.828;5.688;2023-04-22T10:08:12;18.20;99.90
42245;DHT22;27912;51.828;5.688;2023-04-22T10:10:38;18.20;99.90
42245;DHT22;27912;51.828;5.688;2023-04-22T10:13:05;18.30;99.90
42245;DHT22;27912;51.828;5.688;2023-04-22T10:18:02;18.70;99.90
42245;DHT22;27912;51.828;5.688;2023-04-22T10:20:29;18.80;99.90
42245;DHT22;27912;51.828;5.688;2023-04-22T10:22:56;18.90;99.90
42245;DHT22;27912;51.828;5.688;2023-04-22T10:25:25;19.00;99.90
42245;DHT22;27912;51.828;5.688;2023-04-22T10:28:05;19.00;99.90
42245;DHT22;27912;51.828;5.688;2023-04-22T10:30:32;19.00;99.90
42245;DHT22;27912;51.828;5.688;2023-04-22T10:41:29;19.20;99.90
42245;DHT22;27912;51.828;5.688;2023-04-22T10:43:57;19.30;99.90
42245;DHT22;27912;51.828;5.688;2023-04-22T10:49:18;19.30;99.90
42245;DHT22;27912;51.828;5.688;2023-04-22T10:51:54;19.30;99.90
42245;DHT22;27912;51.828;5.688;2023-04-22T10:57:02;19.30;99.90
42245;DHT22;27912;51.828;5.688;2023-04-22T10:59:32;19.30;99.90
42245;DHT22;27912;51.828;5.688;2023-04-22T11:02:05;19.40;99.90
42245;DHT22;27912;51.828;5.688;2023-04-22T11:04:31;19.60;99.90
42245;DHT22;27912;51.828;5.688;2023-04-22T11:09:49;19.70;99.90
42245;DHT22;27912;51.828;5.688;2023-04-22T11:15:08;19.60;99.90
42245;DHT22;27912;51.828;5.688;2023-04-22T11:17:38;19.50;99.90
42245;DHT22;27912;51.828;5.688;2023-04-22T11:20:05;19.50;99.90
42245;DHT22;27912;51.828;5.688;2023-04-22T11:22:45;19.50;99.90
42245;DHT22;27912;51.828;5.688;2023-04-22T11:25:11;19.40;99.90
42245;DHT22;27912;51.828;5.688;2023-04-22T11:27:38;19.30;99.90
42245;DHT22;27912;51.828;5.688;2023-04-22T11:32:36;19.30;99.90
42245;DHT22;27912;51.828;5.688;2023-04-22T11:35:07;19.30;99.90
42245;DHT22;27912;51.828;5.688;2023-04-22T11:37:50;19.20;99.90
42245;DHT22;27912;51.828;5.688;2023-04-22T11:40:21;19.10;99.90
42245;DHT22;27912;51.828;5.688;2023-04-22T11:42:49;18.90;99.90
42245;DHT22;27912;51.828;5.688;2023-04-22T11:45:15;18.70;99.90
42245;DHT22;27912;51.828;5.688;2023-04-22T11:47:41;18.50;99.90
42245;DHT22;27912;51.828;5.688;2023-04-22T11:50:09;18.50;99.90
42245;DHT22;27912;51.828;5.688;2023-04-22T11:52:56;18.30;99.90
42245;DHT22;27912;51.828;5.688;2023-04-22T11:58:00;18.10;99.90
42245;DHT22;27912;51.828;5.688;2023-04-22T12:00:31;18.10;99.90
42245;DHT22;27912;51.828;5.688;2023-04-22T12:03:23;18.10;99.90
42245;DHT22;27912;51.828;5.688;2023-04-22T12:06:01;18.00;99.90
42245;DHT22;27912;51.828;5.688;2023-04-22T12:08:35;18.00;99.90
42245;DHT22;27912;51.828;5.688;2023-04-22T12:11:04;18.00;99.90
42245;DHT22;27912;51.828;5.688;2023-04-22T12:13:39;18.00;99.90
42245;DHT22;27912;51.828;5.688;2023-04-22T12:16:10;17.90;99.90
42245;DHT22;27912;51.828;5.688;2023-04-22T12:18:51;17.90;99.90
42245;DHT22;27912;51.828;5.688;2023-04-22T12:21:20;17.80;99.90
42245;DHT22;27912;51.828;5.688;2023-04-22T12:23:56;17.70;99.90
42245;DHT22;27912;51.828;5.688;2023-04-22T12:26:23;17.50;99.90
42245;DHT22;27912;51.828;5.688;2023-04-22T12:28:51;17.30;99.90
42245;DHT22;27912;51.828;5.688;2023-04-22T12:31:17;17.30;99.90
42245;DHT22;27912;51.828;5.688;2023-04-22T12:33:43;17.20;99.90
42245;DHT22;27912;51.828;5.688;2023-04-22T12:36:09;17.10;99.90
42245;DHT22;27912;51.828;5.688;2023-04-22T12:38:35;16.90;99.90
42245;DHT22;27912;51.828;5.688;2023-04-22T12:41:02;17.00;99.90
42245;DHT22;27912;51.828;5.688;2023-04-22T12:43:27;17.00;99.90
42245;DHT22;27912;51.828;5.688;2023-04-22T12:45:53;16.90;99.90
42245;DHT22;27912;51.828;5.688;2023-04-22T12:48:19;16.90;99.90
42245;DHT22;27912;51.828;5.688;2023-04-22T12:50:45;16.80;99.90
42245;DHT22;27912;51.828;5.688;2023-04-22T12:53:10;16.80;99.90
42245;DHT22;27912;51.828;5.688;2023-04-22T12:55:36;16.70;99.90
42245;DHT22;27912;51.828;5.688;2023-04-22T12:58:02;16.60;99.90
42245;DHT22;27912;51.828;5.688;2023-04-22T13:00:28;16.50;99.90
42245;DHT22;27912;51.828;5.688;2023-04-22T13:02:54;16.40;99.90
42245;DHT22;27912;51.828;5.688;2023-04-22T13:05:19;16.30;99.90
42245;DHT22;27912;51.828;5.688;2023-04-22T13:07:45;16.20;99.90
42245;DHT22;27912;51.828;5.688;2023-04-22T13:10:13;16.10;99.90
42245;DHT22;27912;51.828;5.688;2023-04-22T13:12:40;16.00;99.90
42245;DHT22;27912;51.828;5.688;2023-04-22T13:15:06;15.90;99.90
42245;DHT22;27912;51.828;5.688;2023-04-22T13:17:33;15.80;99.90
42245;DHT22;27912;51.828;5.688;2023-04-22T13:19:59;15.70;99.90
42245;DHT22;27912;51.828;5.688;2023-04-22T13:22:25;15.60;99.90
42245;DHT22;27912;51.828;5.688;2023-04-22T13:24:50;15.50;99.90
42245;DHT22;27912;51.828;5.688;2023-04-22T13:27:16;15.30;99.90
42245;DHT22;27912;51.828;5.688;2023-04-22T13:29:42;15.30;99.90
42245;DHT22;27912;51.828;5.688;2023-04-22T13:32:08;15.20;99.90
42245;DHT22;27912;51.828;5.688;2023-04-22T13:34:33;15.20;99.90
42245;DHT22;27912;51.828;5.688;2023-04-22T13:36:59;15.10;99.90
42245;DHT22;27912;51.828;5.688;2023-04-22T13:39:25;15.00;99.90
42245;DHT22;27912;51.828;5.688;2023-04-22T13:41:51;14.90;99.90
42245;DHT22;27912;51.828;5.688;2023-04-22T13:44:16;14.80;99.90
42245;DHT22;27912;51.828;5.688;2023-04-22T13:46:42;14.70;99.90
42245;DHT22;27912;51.828;5.688;2023-04-22T13:49:08;14.70;99.90
42245;DHT22;27912;51.828;5.688;2023-04-22T13:51:34;14.70;99.90
42245;DHT22;27912;51.828;5.688;2023-04-22T13:54:02;14.80;99.90
42245;DHT22;27912;51.828;5.688;2023-04-22T13:56:28;14.80;99.90
42245;DHT22;27912;51.828;5.688;2023-04-22T13:58:54;14.70;99.90
42245;DHT22;27912;51.828;5.688;2023-04-22T14:01:20;14.70;99.90
42245;DHT22;27912;51.828;5.688;2023-04-22T14:03:46;14.80;99.90
42245;DHT22;27912;51.828;5.688;2023-04-22T14:06:13;14.90;99.90
42245;DHT22;27912;51.828;5.688;2023-04-22T14:08:39;15.00;99.90
42245;DHT22;27912;51.828;5.688;2023-04-22T14:11:05;15.10;99.90
42245;DHT22;27912;51.828;5.688;2023-04-22T14:13:31;15.20;99.90
42245;DHT22;27912;51.828;5.688;2023-04-22T14:15:58;15.20;99.90
42245;DHT22;27912;51.828;5.688;2023-04-22T14:18:24;15.30;99.90
42245;DHT22;27912;51.828;5.688;2023-04-22T14:20:50;15.40;99.90
42245;DHT22;27912;51.828;5.688;2023-04-22T14:23:17;15.50;99.90
42245;DHT22;27912;51.828;5.688;2023-04-22T14:25:46;15.60;99.90
42245;DHT22;27912;51.828;5.688;2023-04-22T14:28:15;15.60;99.90
42245;DHT22;27912;51.828;5.688;2023-04-22T14:30:41;15.70;99.90
42245;DHT22;27912;51.828;5.688;2023-04-22T14:33:07;15.70;99.90
42245;DHT22;27912;51.828;5.688;2023-04-22T14:35:34;15.80;99.90
42245;DHT22;27912;51.828;5.688;2023-04-22T14:38:01;16.00;99.90
42245;DHT22;27912;51.828;5.688;2023-04-22T14:40:27;16.00;99.90
42245;DHT22;27912;51.828;5.688;2023-04-22T14:42:54;16.00;99.90
42245;DHT22;27912;51.828;5.688;2023-04-22T14:45:21;16.00;99.90
42245;DHT22;27912;51.828;5.688;2023-04-22T14:47:47;16.00;99.90
42245;DHT22;27912;51.828;5.688;2023-04-22T14:50:13;16.10;99.90
42245;DHT22;27912;51.828;5.688;2023-04-22T14:52:38;16.10;99.90
42245;DHT22;27912;51.828;5.688;2023-04-22T14:55:04;16.20;99.90
42245;DHT22;27912;51.828;5.688;2023-04-22T14:57:30;16.20;99.90
42245;DHT22;27912;51.828;5.688;2023-04-22T14:59:55;16.10;99.90
42245;DHT22;27912;51.828;5.688;2023-04-22T15:02:21;16.00;99.90
42245;DHT22;27912;51.828;5.688;2023-04-22T15:04:47;15.90;99.90
42245;DHT22;27912;51.828;5.688;2023-04-22T15:07:13;15.80;99.90
42245;DHT22;27912;51.828;5.688;2023-04-22T15:09:38;15.70;99.90
42245;DHT22;27912;51.828;5.688;2023-04-22T15:12:04;15.60;99.90
42245;DHT22;27912;51.828;5.688;2023-04-22T15:14:33;15.50;99.90
42245;DHT22;27912;51.828;5.688;2023-04-22T15:17:00;15.50;99.90
42245;DHT22;27912;51.828;5.688;2023-04-22T15:19:26;15.50;99.90
42245;DHT22;27912;51.828;5.688;2023-04-22T15:21:51;15.50;99.90
42245;DHT22;27912;51.828;5.688;2023-04-22T15:24:17;15.50;99.90
42245;DHT22;27912;51.828;5.688;2023-04-22T15:26:44;15.50;99.90
42245;DHT22;27912;51.828;5.688;2023-04-22T15:29:10;15.40;99.90
42245;DHT22;27912;51.828;5.688;2023-04-22T15:31:36;15.30;99.90
42245;DHT22;27912;51.828;5.688;2023-04-22T15:34:01;15.20;99.90
42245;DHT22;27912;51.828;5.688;2023-04-22T15:36:28;15.10;99.90
42245;DHT22;27912;51.828;5.688;2023-04-22T15:38:54;14.90;99.90
42245;DHT22;27912;51.828;5.688;2023-04-22T15:41:23;14.90;99.90
42245;DHT22;27912;51.828;5.688;2023-04-22T15:43:49;14.80;99.90
42245;DHT22;27912;51.828;5.688;2023-04-22T15:46:18;14.70;99.90
42245;DHT22;27912;51.828;5.688;2023-04-22T15:48:44;14.60;99.90
42245;DHT22;27912;51.828;5.688;2023-04-22T15:51:15;14.60;99.90
42245;DHT22;27912;51.828;5.688;2023-04-22T15:53:41;14.60;99.90
42245;DHT22;27912;51.828;5.688;2023-04-22T15:56:07;14.60;99.90
42245;DHT22;27912;51.828;5.688;2023-04-22T15:58:33;14.70;99.90
42245;DHT22;27912;51.828;5.688;2023-04-22T16:00:59;14.70;99.90